• Join FlightAware (Why Join?)
  • Login
  • US Flag 
10:34PM EDT


 

Airport Tracker/Info


-or-


 

Live Flight TrackerFlight Track Log ✈ SKW5193 ✈ 24-Apr-2012 ✈ KPSP - KIAH

Flight Track Log - Related Links

Times and Time Zones

All times are in EDT time to prevent confusion due to time zone crossing. See the SKW5193 flight status page for this flight to view local times or setup timezone preferences in your user account.

Time Position Orientation Groundspeed Altitude Reporting Facility
EDT Latitude Longitude Course Direction KTS MPH feet Rate Location/Type
03:11PM 33.8246 -116.4693 296° West  Level FlightAware Approximate
03:11PM 33.8500 -116.5333 331° Northwest 176 203 1,400  Level Southern California TRACON
03:12PM 33.9000 -116.5667 40° Northeast 210 242 3,600 2,220 Climbing Southern California TRACON
03:13PM 33.9333 -116.5333 121° Southeast 241 277 5,900 2,220 Climbing Southern California TRACON
03:14PM 33.9000 -116.4667 128° Southeast 251 289 8,100 1,680 Climbing Southern California TRACON
03:15PM 33.8578 -116.4014 118° Southeast 295 339 9,400 1,620 Climbing Los Angeles Center
03:16PM 33.8183 -116.3111 111° Southeast 307 353 11,500 2,160 Climbing Los Angeles Center
03:17PM 33.7850 -116.2086 98° East 307 353 13,800 2,220 Climbing Los Angeles Center
03:18PM 33.7725 -116.0986 97° East 317 365 16,000 2,100 Climbing Los Angeles Center
03:19PM 33.7600 -115.9839 99° East 330 380 18,100 2,100 Climbing Los Angeles Center
03:20PM 33.7453 -115.8689 99° East 342 394 20,300 1,920 Climbing Los Angeles Center
03:21PM 33.7303 -115.7492 94° East 357 411 22,000 1,560 Climbing Los Angeles Center
03:22PM 33.7236 -115.6217 83° East 363 418 23,500 1,560 Climbing Los Angeles Center
03:23PM 33.7375 -115.4917 83° East 374 430 25,200 1,200 Climbing Los Angeles Center
03:24PM 33.7514 -115.3592 84° East 389 448 26,000 360 Climbing Los Angeles Center
03:25PM 33.7650 -115.2142 90° East 416 479 26,000 360 Level Los Angeles Center
03:26PM 33.7658 -115.0642 90° East 436 502 26,800 900 Climbing Los Angeles Center
03:27PM 33.7667 -114.9167 92° East 441 507 27,800 960 Climbing Los Angeles Center
03:28PM 33.7631 -114.7669 105° East 441 507 28,800 840 Climbing Los Angeles Center
03:29PM 33.7300 -114.6150 114° Southeast 446 513 29,500 720 Climbing Los Angeles Center
03:30PM 33.6781 -114.4739 122° Southeast 454 522 30,300 600 Climbing Los Angeles Center
03:32PM 33.5831 -114.2900 106° East 460 529 31,000 240 Climbing Albuquerque Center
03:33PM 33.5444 -114.1272 101° East 475 547 31,000  Level Albuquerque Center
03:34PM 33.5164 -113.9558 101° East 501 577 31,000 -60 Level Albuquerque Center
03:35PM 33.4883 -113.7817 101° East 519 597 30,900  Descending Albuquerque Center
03:36PM 33.4597 -113.6128 102° East 524 603 31,000 300 Climbing Albuquerque Center
03:37PM 33.4308 -113.4464 101° East 518 596 31,500 600 Climbing Albuquerque Center
03:38PM 33.4036 -113.2803 102° East 506 582 32,200 660 Climbing Albuquerque Center
03:39PM 33.3761 -113.1194 102° East 501 577 32,900 660 Climbing Albuquerque Center
03:40PM 33.3464 -112.9558 102° East 501 577 33,600 780 Climbing Albuquerque Center
03:41PM 33.3164 -112.7897 102° East 496 571 34,500 900 Climbing Albuquerque Center
03:42PM 33.2861 -112.6239 102° East 501 577 35,400 900 Climbing Albuquerque Center
03:43PM 33.2558 -112.4581 103° East 506 582 36,300 900 Climbing Albuquerque Center
03:44PM 33.2214 -112.2825 102° East 499 574 37,200 780 Climbing Albuquerque Center
03:45PM 33.1942 -112.1344 103° East 499 574 37,900 720 Climbing Albuquerque Center
03:46PM 33.1592 -111.9589 101° East 494 568 38,700 540 Climbing Albuquerque Center
03:47PM 33.1353 -111.8189 102° East 489 563 39,000 -180 Climbing Albuquerque Center
03:48PM 33.1022 -111.6411 103° East 484 557 38,400 -840 Descending Albuquerque Center
03:49PM 33.0742 -111.4911 102° East 509 586 37,400 -720 Descending Albuquerque Center
03:50PM 33.0389 -111.2986 103° East 529 609 37,000 -240 Descending Albuquerque Center
03:51PM 33.0083 -111.1414 104° East 537 618 37,000  Level Albuquerque Center
03:52PM 32.9739 -110.9764 103° East 530 610 37,000  Level Albuquerque Center
03:53PM 32.9431 -110.8192 102° East 508 585 37,000  Level Albuquerque Center
03:54PM 32.9142 -110.6622 105° East 488 562 37,000  Level Albuquerque Center
03:55PM 32.8806 -110.5128 102° East 481 554 37,000  Level Albuquerque Center
03:56PM 32.8514 -110.3536 104° East 481 554 37,000  Level Albuquerque Center
03:57PM 32.8156 -110.1892 103° East 486 559 37,000  Level Albuquerque Center
03:58PM 32.7839 -110.0253 104° East 501 577 37,000  Level Albuquerque Center
03:59PM 32.7500 -109.8661 104° East 501 577 37,000  Level Albuquerque Center
04:00PM 32.7119 -109.6850 104° East 506 582 37,000  Level Albuquerque Center
04:01PM 32.6772 -109.5214 103° East 506 582 37,000  Level Albuquerque Center
04:02PM 32.6447 -109.3603 105° East 506 582 37,000  Level Albuquerque Center
04:03PM 32.6075 -109.1992 103° East 506 582 37,000 -60 Level Albuquerque Center
04:04PM 32.5767 -109.0383 105° East 506 582 36,900 -540 Descending Albuquerque Center
04:05PM 32.5411 -108.8828 104° East 495 570 36,000 -900 Descending Albuquerque Center
04:06PM 32.5075 -108.7247 104° East 495 570 35,100 -540 Descending Albuquerque Center
04:07PM 32.4778 -108.5839 104° East 495 570 35,000 -60 Descending Albuquerque Center
04:08PM 32.4439 -108.4261 106° East 490 564 35,000 -60 Level Albuquerque Center
04:09PM 32.4036 -108.2583 105° East 490 564 34,900  Descending Albuquerque Center
04:10PM 32.3669 -108.1008 103° East 490 564 35,000  Climbing Albuquerque Center
04:11PM 32.3347 -107.9408 105° East 495 570 35,000  Level Albuquerque Center
04:12PM 32.2997 -107.7858 105° East 495 570 35,000  Level Albuquerque Center
04:13PM 32.2628 -107.6286 104° East 495 570 35,000  Level Albuquerque Center
04:14PM 32.2297 -107.4692 105° East 495 570 35,000  Level Albuquerque Center
04:15PM 32.1983 -107.3267 105° East 495 570 35,000  Level Albuquerque Center
04:16PM 32.1628 -107.1722 105° East 495 570 35,000  Level Albuquerque Center
04:17PM 32.1269 -107.0156 106° East 495 570 35,000  Level Albuquerque Center
04:18PM 32.0911 -106.8639 106° East 490 564 35,000  Level Albuquerque Center
04:19PM 32.0547 -106.7122 105° East 490 564 35,000  Level Albuquerque Center
04:20PM 32.0206 -106.5608 105° East 479 551 35,000  Level Albuquerque Center
04:21PM 31.9861 -106.4119 105° East 474 545 35,000  Level Albuquerque Center
04:22PM 31.9514 -106.2581 99° East 474 545 35,000  Level Albuquerque Center
04:23PM 31.9311 -106.1069 100° East 469 540 35,000  Level Albuquerque Center
04:24PM 31.9064 -105.9386 100° East 469 540 35,000  Level Albuquerque Center
04:25PM 31.8858 -105.8044 100° East 469 540 35,000  Level Albuquerque Center
04:26PM 31.8608 -105.6389 99° East 469 540 35,000  Level Albuquerque Center
04:27PM 31.8419 -105.5050 99° East 469 540 35,000  Level Albuquerque Center
04:28PM 31.8183 -105.3344 101° East 463 533 35,000  Level Albuquerque Center
04:29PM 31.7975 -105.2056 99° East 463 533 35,000  Level Albuquerque Center
04:30PM 31.7758 -105.0522 99° East 468 539 35,000  Level Albuquerque Center
04:31PM 31.7561 -104.9042 100° East 468 539 35,000  Level Albuquerque Center
04:32PM 31.7342 -104.7533 102° East 468 539 35,000  Level Albuquerque Center
04:33PM 31.7081 -104.6056 99° East 468 539 35,000  Level Albuquerque Center
04:34PM 31.6878 -104.4550 99° East 463 533 35,000 180 Level Albuquerque Center
04:35PM 31.6675 -104.3069 101° East 463 533 35,400 540 Climbing Albuquerque Center
04:36PM 31.6428 -104.1542 99° East 463 533 36,100 660 Climbing Albuquerque Center
04:37PM 31.6217 -104.0017 100° East 463 533 36,800 660 Climbing Albuquerque Center
04:38PM 31.5986 -103.8514 101° East 463 533 37,500 660 Climbing Albuquerque Center
04:39PM 31.5736 -103.7039 99° East 463 533 38,200 660 Climbing Albuquerque Center
04:40PM 31.5522 -103.5514 101° East 463 533 38,900 360 Climbing Albuquerque Center
04:41PM 31.5286 -103.4064 99° East 463 533 39,000  Climbing Albuquerque Center
04:42PM 31.5067 -103.2517 101° East 468 539 39,000  Level Albuquerque Center
04:43PM 31.4808 -103.1022 100° East 468 539 39,000  Level Albuquerque Center
04:44PM 31.4564 -102.9453 101° East 473 544 39,000  Level Albuquerque Center
04:45PM 31.4317 -102.7911 100° East 479 551 39,000  Level Albuquerque Center
04:47PM 31.3736 -102.4233 103° East 488 562 39,000  Level Houston Center
04:48PM 31.3428 -102.2625 99° East 488 562 39,000  Level Houston Center
04:49PM 31.3233 -102.1125 103° East 500 575 39,000  Level Houston Center
04:50PM 31.2933 -101.9614 101° East 506 582 39,000  Level Houston Center
04:51PM 31.2675 -101.8083 101° East 484 557 39,000  Level Houston Center
04:52PM 31.2414 -101.6581 102° East 478 550 39,000  Level Houston Center
04:53PM 31.2131 -101.5050 100° East 478 550 39,000  Level Houston Center
04:54PM 31.1906 -101.3575 101° East 478 550 39,000  Level Houston Center
04:55PM 31.1644 -101.1997 99° East 470 541 39,000  Level Houston Center
04:56PM 31.1439 -101.0478 98° East 470 541 39,000  Level Houston Center
04:57PM 31.1250 -100.8958 100° East 470 541 39,000  Level Houston Center
04:58PM 31.1019 -100.7483 99° East 470 541 39,000  Level Houston Center
04:59PM 31.0806 -100.5989 99° East 470 541 39,000  Level Houston Center
05:00PM 31.0592 -100.4494 101° East 470 541 39,000  Level Houston Center
05:01PM 31.0350 -100.3069 100° East 470 541 39,000  Level Houston Center
05:02PM 31.0133 -100.1575 100° East 465 535 39,000  Level Houston Center
05:03PM 30.9914 -100.0106 97° East 465 535 39,000  Level Houston Center
05:04PM 30.9756 -99.8592 91° East 465 535 39,000  Level Houston Center
05:05PM 30.9739 -99.7164 92° East 465 535 39,000  Level Houston Center
05:06PM 30.9703 -99.5639 91° East 465 535 39,000  Level Houston Center
05:07PM 30.9683 -99.4211 92° East 460 529 39,000  Level Houston Center
05:08PM 30.9639 -99.2756 97° East 455 524 39,000  Level Houston Center
05:09PM 30.9506 -99.1417 91° East 455 524 39,000  Level Houston Center
05:10PM 30.9481 -98.9986 91° East 455 524 39,000  Level Houston Center
05:11PM 30.9456 -98.8511 92° East 455 524 39,000  Level Houston Center
05:12PM 30.9408 -98.7056 93° East 455 524 39,000  Level Houston Center
05:13PM 30.9344 -98.5456 92° East 455 524 39,000  Level Houston Center
05:14PM 30.9294 -98.4000 93° East 455 524 39,000  Level Houston Center
05:15PM 30.9239 -98.2547 93° East 450 518 39,000  Level Houston Center
05:16PM 30.9183 -98.1117 92° East 450 518 39,000  Level Houston Center
05:17PM 30.9131 -97.9636 93° East 445 512 39,000  Level Houston Center
05:18PM 30.9069 -97.8206 94° East 445 512 39,000 -120 Level Houston Center
05:19PM 30.8989 -97.6750 93° East 445 512 38,800 -360 Descending Houston Center
05:20PM 30.8928 -97.5297 92° East 445 512 38,300 -540 Descending Houston Center
05:21PM 30.8881 -97.3964 92° East 451 519 37,800 -900 Descending Houston Center
05:22PM 30.8828 -97.2269 94° East 465 535 36,500 -1,440 Descending Houston Center
05:23PM 30.8725 -97.0692 92° East 488 562 35,000 -1,620 Descending Houston Center
05:24PM 30.8678 -96.9261 99° East 468 539 33,300 -1,980 Descending Houston Center
05:25PM 30.8464 -96.7728 116° Southeast 468 539 31,100 -2,640 Descending Houston Center
05:26PM 30.7872 -96.6297 117° Southeast 474 545 28,100 -3,000 Descending Houston Center
05:27PM 30.7294 -96.4967 116° Southeast 464 534 25,200 -2,940 Descending Houston Center
05:28PM 30.6736 -96.3658 117° Southeast 458 527 22,300 -2,700 Descending Houston Center
05:29PM 30.6233 -96.2525 118° Southeast 453 521 19,900 -2,820 Descending Houston Center
05:30PM 30.5708 -96.1369 118° Southeast 428 493 17,200 -3,060 Descending Houston Center
05:31PM 30.5142 -96.0139 116° Southeast 414 476 14,300 -2,520 Descending Houston Center
05:32PM 30.4658 -95.8986 132° Southeast 404 465 12,100 -1,320 Descending Houston Center
05:33PM 30.3917 -95.8017 137° Southeast 404 465 11,600 -660 Descending Houston Center
05:34PM 30.3047 -95.7092 138° Southeast 405 466 10,800 -780 Descending Houston Center
05:35PM 30.2297 -95.6317 139° Southeast 398 458 10,100 -1,020 Descending Houston Center
05:36PM 30.1589 -95.5594 131° Southeast 303 349 8,900 -1,320 Descending Houston Center
05:37PM 30.1025 -95.4853 88° East 287 330 7,500 -960 Descending Houston Center
05:38PM 30.1050 -95.3964 90° East 275 316 7,000 -240 Descending Houston Center
05:39PM 30.1053 -95.3031 102° East 272 313 7,000 -480 Level Houston Center
05:40PM 30.0908 -95.2233 135° Southeast 234 269 6,100 -1,440 Descending Houston Center
05:41PM 30.0442 -95.1689 206° Southwest 240 276 4,200 -1,920 Descending Houston Center
05:42PM 29.9956 -95.1958 206° Southwest 196 226 2,200 -1,980 Descending Houston Center